Chomedey, Canada
Current Conditions -  °F | °C
As of 11:00 PM on Sunday 21 Dec 2014 (Local Time) from CYUL Reporting Station
Scattered Clouds Scattered Clouds  
Wind Chill: -15°   Ceiling: Unl
Heat Index: -9°   Visibility: 12mi
Dew Point: -12°   Wind: 9mph
Humidity: 79%   Direction: 50°NE
Pressure: 30.42"   Gusts: NA
Location:  45.55°N, 73.73°W
Report Text: CYUL 220400Z 05008KT 12SM SCT030 M09/M12 A3042 RMK SC4 SLP303
Loading
Personal Weather Stations






























Interactive Weather Map New forecast layout! Learn more

10-Day Weather Forecast

Advertisements
Track Severe Weather on mobile